Time;durP1;ratioP1;P1;durP2;ratioP2;P2;SDS_P1;SDS_P2;PMS_P1;PMS_P2;Temp;Humidity;BMP_temperature;BMP_pressure;BME280_temperature;BME280_humidity;BME280_pressure;Samples;Min_cycle;Max_cycle;Signal;HPM_P1;HPM_P2
2021/09/14 00:00:57;;;;;;;26.70;22.27;;;15.30;84.90;;;;;;5016017;28;20065;-72
2021/09/14 00:03:22;;;;;;;25.92;22.75;;;15.30;84.80;;;;;;5018685;28;20037;-72
2021/09/14 00:05:48;;;;;;;25.25;21.25;;;15.20;85.00;;;;;;5020544;28;20112;-72
2021/09/14 00:08:14;;;;;;;27.13;23.80;;;15.20;85.10;;;;;;5023395;28;20403;-71
2021/09/14 00:10:39;;;;;;;29.00;24.13;;;15.30;84.90;;;;;;5009113;28;20037;-72
2021/09/14 00:13:07;;;;;;;26.85;23.40;;;15.20;84.90;;;;;;5023398;28;20499;-72
2021/09/14 00:15:33;;;;;;;29.23;24.50;;;15.20;85.00;;;;;;5010934;28;20033;-74
2021/09/14 00:17:58;;;;;;;28.77;24.38;;;15.20;85.10;;;;;;5029880;28;20033;-74
2021/09/14 00:20:24;;;;;;;27.90;23.10;;;15.10;85.30;;;;;;5024741;28;20084;-72
2021/09/14 00:22:50;;;;;;;30.45;25.35;;;15.10;85.40;;;;;;5022891;28;20034;-71
2021/09/14 00:25:15;;;;;;;28.08;24.98;;;15.10;85.40;;;;;;5023621;28;20036;-72
2021/09/14 00:27:41;;;;;;;30.85;24.88;;;15.10;85.50;;;;;;5029846;28;20038;-73
2021/09/14 00:30:07;;;;;;;29.27;25.50;;;15.10;85.50;;;;;;5010548;28;20051;-71
2021/09/14 00:32:33;;;;;;;27.85;24.13;;;15.00;85.60;;;;;;5030258;28;20026;-72
2021/09/14 00:34:59;;;;;;;29.75;25.42;;;15.10;85.60;;;;;;5026682;28;20179;-71
2021/09/14 00:37:24;;;;;;;30.92;27.63;;;15.00;85.60;;;;;;5028081;28;20405;-72
2021/09/14 00:39:50;;;;;;;29.60;26.02;;;15.00;85.70;;;;;;5024726;28;20037;-72
2021/09/14 00:42:15;;;;;;;28.85;25.15;;;15.00;85.70;;;;;;5026823;28;20034;-71
2021/09/14 00:44:42;;;;;;;29.85;25.17;;;15.00;85.70;;;;;;5018061;28;20034;-71
2021/09/14 00:47:07;;;;;;;31.25;26.33;;;14.90;85.80;;;;;;5000453;28;20030;-74
2021/09/14 00:49:33;;;;;;;35.08;27.85;;;15.00;85.80;;;;;;5027841;28;20048;-71
2021/09/14 00:51:59;;;;;;;31.92;27.73;;;14.90;85.80;;;;;;5028964;28;20034;-71
2021/09/14 00:54:26;;;;;;;34.00;26.77;;;14.90;85.80;;;;;;5007534;28;20037;-73
2021/09/14 00:56:53;;;;;;;32.47;27.35;;;14.80;85.90;;;;;;5029051;28;20172;-72
2021/09/14 00:59:19;;;;;;;31.45;27.75;;;14.80;86.00;;;;;;5026435;28;20049;-73
2021/09/14 01:01:44;;;;;;;32.67;28.00;;;14.90;86.10;;;;;;5026815;28;20407;-71
2021/09/14 01:04:10;;;;;;;31.95;27.60;;;14.80;86.20;;;;;;5024304;28;20022;-74
2021/09/14 01:06:36;;;;;;;32.50;28.58;;;14.80;86.30;;;;;;5024339;28;20041;-72
2021/09/14 01:09:03;;;;;;;32.03;27.65;;;14.80;86.20;;;;;;5027011;28;20092;-72
2021/09/14 01:11:29;;;;;;;31.83;28.20;;;14.80;86.20;;;;;;5029042;28;20034;-74
2021/09/14 01:14:01;;;;;;;31.20;27.08;;;14.80;86.10;;;;;;5021387;28;20111;-72
2021/09/14 01:16:30;;;;;;;32.78;29.17;;;14.80;86.10;;;;;;5024732;28;20037;-71
2021/09/14 01:18:56;;;;;;;31.15;26.88;;;14.80;86.20;;;;;;5022474;28;20037;-71
2021/09/14 01:21:21;;;;;;;31.92;28.27;;;14.80;86.20;;;;;;5022481;28;20104;-71
2021/09/14 01:23:47;;;;;;;36.70;29.35;;;14.70;86.30;;;;;;5023692;28;20488;-71
2021/09/14 01:26:13;;;;;;;33.17;29.17;;;14.70;86.40;;;;;;5018263;28;20476;-71
2021/09/14 01:28:38;;;;;;;34.63;30.00;;;14.70;86.40;;;;;;5020982;28;20057;-71
2021/09/14 01:31:04;;;;;;;37.97;30.92;;;14.70;86.50;;;;;;5024098;28;20084;-72
2021/09/14 01:33:29;;;;;;;33.78;30.13;;;14.70;86.60;;;;;;5027310;28;20112;-72
2021/09/14 01:35:55;;;;;;;34.00;29.92;;;14.60;86.60;;;;;;5028260;28;20035;-72
2021/09/14 01:38:21;;;;;;;34.60;30.30;;;14.60;86.80;;;;;;5022074;28;20036;-73
2021/09/14 01:40:48;;;;;;;36.25;31.17;;;14.60;86.80;;;;;;5020603;28;20539;-71
2021/09/14 01:43:14;;;;;;;35.47;30.85;;;14.60;86.80;;;;;;5019260;28;20033;-71
2021/09/14 01:45:40;;;;;;;37.65;32.17;;;14.60;86.90;;;;;;5025294;28;20417;-71
2021/09/14 01:48:06;;;;;;;37.47;31.15;;;14.60;87.00;;;;;;5028261;28;20116;-72
2021/09/14 01:50:31;;;;;;;35.55;31.00;;;14.60;87.00;;;;;;5022101;28;20041;-74
2021/09/14 01:53:00;;;;;;;35.25;31.17;;;14.60;87.10;;;;;;5024315;28;20045;-71
2021/09/14 01:55:26;;;;;;;36.22;32.30;;;14.60;87.10;;;;;;5018078;28;20428;-72
2021/09/14 01:57:53;;;;;;;38.95;31.92;;;14.60;87.20;;;;;;5024411;28;20091;-71
2021/09/14 02:00:30;;;;;;;35.65;31.85;;;14.60;87.20;;;;;;5017427;28;20041;-71
2021/09/14 02:06:17;;;;;;;39.13;33.63;;;14.60;87.30;;;;;;5021463;28;20176;-71
2021/09/14 02:44:35;;;;;;;40.63;32.78;;;14.50;87.50;;;;;;5024935;28;20032;-72
2021/09/14 03:00:42;;;;;;;40.72;33.65;;;14.40;87.50;;;;;;5016638;28;20064;-71
2021/09/14 03:03:08;;;;;;;39.63;33.33;;;14.40;87.40;;;;;;5024326;28;20060;-71
2021/09/14 03:05:34;;;;;;;46.15;36.22;;;14.40;87.40;;;;;;5020283;28;20045;-71
2021/09/14 03:07:59;;;;;;;42.45;35.53;;;14.30;87.60;;;;;;5025814;28;20037;-71
2021/09/14 03:10:25;;;;;;;42.40;35.38;;;14.30;87.60;;;;;;5019456;28;20038;-74
2021/09/14 03:12:51;;;;;;;40.50;34.08;;;14.30;87.40;;;;;;5025670;28;20037;-71
2021/09/14 03:15:16;;;;;;;41.50;34.28;;;14.30;87.60;;;;;;5023544;28;20117;-73
2021/09/14 03:17:42;;;;;;;41.35;34.80;;;14.30;87.70;;;;;;5026893;28;20033;-71
2021/09/14 03:20:08;;;;;;;43.28;35.65;;;14.30;87.90;;;;;;5024435;28;20091;-72
2021/09/14 03:22:34;;;;;;;43.20;36.15;;;14.30;87.80;;;;;;5026399;28;20026;-71
2021/09/14 03:25:00;;;;;;;43.95;34.58;;;14.30;87.70;;;;;;5026611;28;20120;-72
2021/09/14 03:27:25;;;;;;;40.60;35.88;;;14.30;87.70;;;;;;5026348;28;20034;-71
2021/09/14 03:29:51;;;;;;;43.70;34.30;;;14.30;87.70;;;;;;5030550;28;20041;-71
2021/09/14 03:32:17;;;;;;;42.42;36.65;;;14.20;87.80;;;;;;5022587;28;20041;-71
2021/09/14 03:34:43;;;;;;;42.15;37.03;;;14.20;87.80;;;;;;5031019;28;20037;-71
2021/09/14 03:37:08;;;;;;;47.67;37.47;;;14.20;87.90;;;;;;5026860;28;20033;-71
2021/09/14 03:39:34;;;;;;;41.42;34.92;;;14.20;87.90;;;;;;5029157;28;20107;-71
2021/09/14 03:42:00;;;;;;;45.97;37.00;;;14.30;87.90;;;;;;5024072;28;20030;-72
2021/09/14 03:44:25;;;;;;;44.80;35.65;;;14.30;87.80;;;;;;5025720;28;20037;-71
2021/09/14 03:46:51;;;;;;;45.13;36.97;;;14.30;87.80;;;;;;5022946;28;20097;-71
2021/09/14 03:49:17;;;;;;;41.17;36.22;;;14.30;87.80;;;;;;5028582;28;20128;-71
2021/09/14 03:51:43;;;;;;;42.42;37.25;;;14.30;87.70;;;;;;5029377;28;20050;-71
2021/09/14 03:54:09;;;;;;;42.83;37.38;;;14.30;87.70;;;;;;5023128;28;20041;-71
2021/09/14 03:56:35;;;;;;;44.15;36.55;;;14.20;87.80;;;;;;5026141;28;20129;-71
2021/09/14 03:59:00;;;;;;;43.72;37.67;;;14.30;87.90;;;;;;5028950;28;20128;-72
2021/09/14 04:01:26;;;;;;;46.70;39.10;;;14.20;87.90;;;;;;5028951;28;20396;-72
2021/09/14 04:04:04;;;;;;;45.08;38.50;;;14.20;88.00;;;;;;5027558;28;20030;-71
2021/09/14 04:06:51;;;;;;;45.55;38.28;;;14.20;88.10;;;;;;5027223;28;20033;-71
2021/09/14 04:09:16;;;;;;;48.00;39.17;;;14.20;88.20;;;;;;5029717;28;20037;-71
2021/09/14 04:11:43;;;;;;;47.25;39.70;;;14.20;88.20;;;;;;5012322;28;20547;-71
2021/09/14 04:14:09;;;;;;;45.78;38.80;;;14.10;88.20;;;;;;5025292;28;20087;-71
2021/09/14 04:16:34;;;;;;;47.78;38.83;;;14.20;88.30;;;;;;5024310;28;20034;-71
2021/09/14 04:19:00;;;;;;;46.55;38.28;;;14.20;88.30;;;;;;5010337;28;20500;-72
2021/09/14 04:21:26;;;;;;;47.47;39.00;;;14.10;88.30;;;;;;5029286;28;20629;-72
2021/09/14 04:23:51;;;;;;;45.30;39.63;;;14.10;88.30;;;;;;5026221;28;20052;-72
2021/09/14 04:26:17;;;;;;;49.55;40.42;;;14.10;88.40;;;;;;5010471;28;20033;-71
2021/09/14 04:28:43;;;;;;;49.55;41.42;;;14.10;88.50;;;;;;5018951;28;20034;-73
2021/09/14 04:31:08;;;;;;;47.50;38.53;;;14.10;88.50;;;;;;5009223;28;20072;-73
2021/09/14 04:33:34;;;;;;;50.45;41.13;;;14.10;88.50;;;;;;5024860;28;20552;-71
2021/09/14 04:36:00;;;;;;;48.75;40.15;;;14.10;88.60;;;;;;5002992;28;20037;-74
2021/09/14 04:38:25;;;;;;;44.30;37.63;;;14.10;88.60;;;;;;5023912;28;20037;-71
2021/09/14 04:40:52;;;;;;;49.90;41.08;;;14.00;88.60;;;;;;5025275;28;20033;-72
2021/09/14 04:43:18;;;;;;;47.83;38.28;;;14.10;88.60;;;;;;5024608;28;20136;-72
2021/09/14 04:45:43;;;;;;;47.47;39.00;;;14.00;88.70;;;;;;5016455;28;20121;-74
2021/09/14 04:48:10;;;;;;;44.55;38.05;;;14.00;88.60;;;;;;5004986;28;20045;-72
2021/09/14 04:50:37;;;;;;;49.00;40.13;;;14.00;88.60;;;;;;5013761;28;20087;-72
2021/09/14 04:53:03;;;;;;;48.15;40.78;;;13.90;88.70;;;;;;5018406;28;20064;-72
2021/09/14 04:55:28;;;;;;;45.92;39.08;;;13.90;88.70;;;;;;5027995;28;20037;-72
2021/09/14 04:57:54;;;;;;;47.15;39.28;;;13.90;88.80;;;;;;5022752;28;20048;-72
2021/09/14 05:00:20;;;;;;;48.25;39.35;;;13.90;88.80;;;;;;5005573;28;20064;-72
2021/09/14 05:02:45;;;;;;;46.95;37.92;;;13.90;88.80;;;;;;5020223;28;20392;-72
2021/09/14 05:05:11;;;;;;;49.22;39.42;;;13.90;88.80;;;;;;5024066;28;20030;-72
2021/09/14 05:07:37;;;;;;;50.50;41.47;;;13.80;88.90;;;;;;5027153;28;20036;-72
2021/09/14 05:10:03;;;;;;;49.85;40.05;;;13.80;88.90;;;;;;5022847;28;20089;-71
2021/09/14 05:12:29;;;;;;;46.63;38.30;;;13.80;89.00;;;;;;5019283;28;20030;-75
2021/09/14 05:14:54;;;;;;;47.33;38.83;;;13.80;89.00;;;;;;5006086;28;20038;-73
2021/09/14 05:17:20;;;;;;;51.50;43.25;;;13.80;89.00;;;;;;5016534;28;20172;-72
2021/09/14 05:19:47;;;;;;;49.20;39.72;;;13.80;89.00;;;;;;5021786;28;20042;-71
2021/09/14 05:22:13;;;;;;;47.60;40.45;;;13.80;89.00;;;;;;5022993;28;20033;-72
2021/09/14 05:24:39;;;;;;;51.30;40.72;;;13.80;88.90;;;;;;5020015;28;20041;-72
2021/09/14 05:27:05;;;;;;;51.05;40.38;;;13.80;88.90;;;;;;5025140;28;20381;-71
2021/09/14 05:29:31;;;;;;;46.45;38.00;;;13.80;88.80;;;;;;5025383;28;20041;-72
2021/09/14 05:31:57;;;;;;;50.58;41.25;;;13.80;88.90;;;;;;5027577;28;20040;-73
2021/09/14 05:34:23;;;;;;;44.15;37.97;;;13.80;88.90;;;;;;5026066;28;20033;-72
2021/09/14 05:36:49;;;;;;;51.17;41.55;;;13.80;88.90;;;;;;5023787;28;20037;-69
2021/09/14 05:39:16;;;;;;;47.85;40.08;;;13.80;88.90;;;;;;5023490;28;20041;-72
2021/09/14 05:41:41;;;;;;;54.58;41.60;;;13.80;88.90;;;;;;5021669;28;20057;-69
2021/09/14 05:44:07;;;;;;;52.63;41.85;;;13.80;88.90;;;;;;5018474;28;20128;-72
2021/09/14 05:46:33;;;;;;;53.65;43.85;;;13.80;89.00;;;;;;5022499;28;20049;-69
2021/09/14 05:48:58;;;;;;;54.58;43.83;;;13.80;89.10;;;;;;5018646;28;20041;-70
2021/09/14 05:51:24;;;;;;;53.63;44.40;;;13.80;89.20;;;;;;5018774;28;20392;-70
2021/09/14 05:53:50;;;;;;;52.70;42.55;;;13.90;89.30;;;;;;5001823;28;20176;-69
2021/09/14 05:56:16;;;;;;;52.47;43.40;;;13.90;89.40;;;;;;5022118;28;20037;-70
2021/09/14 05:58:41;;;;;;;50.45;41.88;;;14.00;89.50;;;;;;5022552;28;20037;-70
2021/09/14 06:01:08;;;;;;;55.50;44.20;;;14.10;89.20;;;;;;5018224;28;20042;-73
2021/09/14 06:03:34;;;;;;;54.90;43.65;;;14.10;89.10;;;;;;5024071;28;20044;-68
2021/09/14 06:05:59;;;;;;;53.38;42.45;;;14.20;88.90;;;;;;5017899;28;20116;-70
2021/09/14 06:08:25;;;;;;;52.92;43.33;;;14.30;88.90;;;;;;5018285;28;20826;-69
2021/09/14 06:10:51;;;;;;;52.55;41.72;;;14.40;88.60;;;;;;5020732;28;20087;-69
2021/09/14 06:13:17;;;;;;;52.58;43.47;;;14.40;88.50;;;;;;5018193;28;20026;-69
2021/09/14 06:15:43;;;;;;;52.13;42.53;;;14.60;88.10;;;;;;5023680;28;20399;-73
2021/09/14 06:18:09;;;;;;;56.80;43.35;;;14.60;87.90;;;;;;5022533;28;20029;-70
2021/09/14 06:20:34;;;;;;;53.80;41.75;;;14.60;87.80;;;;;;5020228;28;20034;-70
2021/09/14 06:23:00;;;;;;;47.92;41.33;;;14.60;87.60;;;;;;5022053;28;20030;-70
2021/09/14 06:25:26;;;;;;;49.08;40.38;;;14.70;87.70;;;;;;5024653;28;20502;-70
2021/09/14 06:27:51;;;;;;;48.60;40.83;;;14.70;87.70;;;;;;5025511;28;20030;-71
2021/09/14 06:30:17;;;;;;;51.20;42.10;;;14.80;87.40;;;;;;5025729;28;20042;-71
2021/09/14 06:32:43;;;;;;;51.08;43.65;;;14.90;87.30;;;;;;5024048;28;20421;-76
2021/09/14 06:35:09;;;;;;;48.30;40.80;;;14.90;87.20;;;;;;5023913;28;20049;-70
2021/09/14 06:37:35;;;;;;;51.33;42.15;;;15.00;87.20;;;;;;5021088;28;20103;-69
2021/09/14 06:40:01;;;;;;;51.17;43.28;;;15.10;86.80;;;;;;5002781;28;20025;-71
2021/09/14 06:42:29;;;;;;;50.70;40.42;;;15.20;86.60;;;;;;5023831;28;20527;-70
2021/09/14 06:44:55;;;;;;;54.67;43.40;;;15.40;86.20;;;;;;5018979;28;20037;-70
2021/09/14 06:47:20;;;;;;;51.10;42.97;;;15.50;85.80;;;;;;5019629;28;20484;-70
2021/09/14 06:49:46;;;;;;;52.22;42.72;;;15.50;85.50;;;;;;5017823;28;20047;-72
2021/09/14 06:52:12;;;;;;;51.90;44.08;;;15.50;85.70;;;;;;5021066;28;20030;-71
2021/09/14 06:54:38;;;;;;;47.78;41.33;;;15.60;85.60;;;;;;5015408;28;20033;-70
2021/09/14 06:57:04;;;;;;;47.83;40.05;;;15.70;85.00;;;;;;5023432;28;20748;-70
2021/09/14 06:59:29;;;;;;;44.22;38.05;;;15.80;85.10;;;;;;5021142;28;20566;-70
2021/09/14 07:01:55;;;;;;;45.08;39.22;;;16.10;84.90;;;;;;5016754;28;20033;-70
2021/09/14 07:04:21;;;;;;;41.55;37.05;;;16.10;84.40;;;;;;5019342;28;25522;-71
2021/09/14 07:06:50;;;;;;;42.85;36.53;;;16.20;84.20;;;;;;5001760;28;20042;-70
2021/09/14 07:09:16;;;;;;;43.33;36.58;;;16.20;83.90;;;;;;5018286;28;20045;-70
2021/09/14 07:11:41;;;;;;;41.30;35.47;;;16.20;83.80;;;;;;5015758;28;20034;-70
2021/09/14 07:14:07;;;;;;;38.33;34.13;;;16.30;83.80;;;;;;5024872;28;20074;-71
2021/09/14 07:16:33;;;;;;;41.85;35.83;;;16.40;83.50;;;;;;5026153;28;20037;-71
2021/09/14 07:18:58;;;;;;;41.42;36.88;;;16.50;83.10;;;;;;5025891;28;20378;-71
2021/09/14 07:21:24;;;;;;;38.85;34.75;;;16.50;83.30;;;;;;5019481;28;20532;-70
2021/09/14 07:23:50;;;;;;;39.78;35.45;;;16.70;83.00;;;;;;5023006;28;20455;-69
2021/09/14 07:26:15;;;;;;;37.45;33.45;;;16.80;82.80;;;;;;5019299;28;20484;-69
2021/09/14 07:28:41;;;;;;;39.30;34.17;;;16.90;82.90;;;;;;5025588;28;20030;-69
2021/09/14 07:31:08;;;;;;;40.22;35.03;;;16.90;81.90;;;;;;5025348;28;20041;-69
2021/09/14 07:33:33;;;;;;;39.45;34.55;;;16.80;82.10;;;;;;5025344;28;20069;-70
2021/09/14 07:35:59;;;;;;;42.75;34.42;;;16.80;82.30;;;;;;5023019;28;20034;-70
2021/09/14 07:38:25;;;;;;;38.42;33.58;;;16.80;82.20;;;;;;5016579;28;20600;-69
2021/09/14 07:40:50;;;;;;;39.15;34.65;;;16.90;82.50;;;;;;5018154;28;20069;-70
2021/09/14 07:43:16;;;;;;;40.25;35.15;;;16.90;82.70;;;;;;5016680;28;20070;-72
2021/09/14 07:45:42;;;;;;;40.58;34.80;;;16.90;82.50;;;;;;5020575;28;20026;-70
2021/09/14 07:48:08;;;;;;;41.92;34.03;;;17.10;83.20;;;;;;5016319;28;20385;-69
2021/09/14 07:50:33;;;;;;;37.22;32.38;;;17.40;82.40;;;;;;5013596;28;20468;-71
2021/09/14 07:52:59;;;;;;;41.15;33.50;;;17.70;82.10;;;;;;5022769;28;20434;-69
2021/09/14 07:55:25;;;;;;;35.63;31.73;;;18.00;80.20;;;;;;5019393;28;20041;-70
2021/09/14 07:57:51;;;;;;;34.42;30.63;;;18.20;79.40;;;;;;5023321;28;20034;-71
2021/09/14 08:00:16;;;;;;;34.63;29.80;;;18.50;78.20;;;;;;5021379;28;20393;-70
2021/09/14 08:02:56;;;;;;;33.92;29.73;;;18.60;78.90;;;;;;5020643;28;20457;-69
2021/09/14 08:05:22;;;;;;;33.58;28.77;;;18.80;77.90;;;;;;5016806;28;20065;-70
2021/09/14 08:07:47;;;;;;;33.25;28.88;;;19.00;76.90;;;;;;5021339;28;20077;-68
2021/09/14 08:10:13;;;;;;;31.63;28.17;;;19.00;77.00;;;;;;5022647;28;20034;-69
2021/09/14 08:12:39;;;;;;;33.75;27.55;;;19.10;76.90;;;;;;5017586;28;20034;-73
2021/09/14 08:15:05;;;;;;;33.90;27.88;;;19.10;76.40;;;;;;5023556;28;20404;-70
2021/09/14 08:17:31;;;;;;;28.92;25.63;;;19.10;76.30;;;;;;5026051;28;20037;-70
2021/09/14 08:19:56;;;;;;;30.20;25.63;;;19.20;76.30;;;;;;5026932;28;20044;-69
2021/09/14 08:22:23;;;;;;;29.75;25.80;;;19.20;76.40;;;;;;5024063;28;20034;-70
2021/09/14 08:24:49;;;;;;;27.38;24.35;;;19.20;75.60;;;;;;5028593;28;20152;-68
2021/09/14 08:27:14;;;;;;;29.90;25.05;;;19.20;75.90;;;;;;5024204;28;20461;-70
2021/09/14 08:29:40;;;;;;;26.25;23.48;;;19.20;76.50;;;;;;5025356;28;20401;-69
2021/09/14 08:32:06;;;;;;;29.77;25.50;;;19.30;76.60;;;;;;5024718;28;20372;-69
2021/09/14 08:34:32;;;;;;;27.60;24.70;;;19.10;76.30;;;;;;5033951;28;20037;-69
2021/09/14 08:36:57;;;;;;;28.70;24.85;;;19.30;76.60;;;;;;5032944;28;20030;-69
2021/09/14 08:39:23;;;;;;;26.50;23.80;;;19.30;76.40;;;;;;5027892;28;20044;-71
2021/09/14 08:41:50;;;;;;;30.42;25.10;;;19.30;76.70;;;;;;5023199;28;20041;-69
2021/09/14 08:44:16;;;;;;;32.15;25.30;;;19.50;76.30;;;;;;5018710;28;20689;-69
2021/09/14 08:46:42;;;;;;;27.48;24.58;;;19.60;76.00;;;;;;5024267;28;20039;-69
2021/09/14 08:49:14;;;;;;;29.95;24.10;;;19.90;76.20;;;;;;5025083;28;20036;-69
2021/09/14 08:51:39;;;;;;;28.10;23.02;;;20.10;74.50;;;;;;5026084;28;20025;-69
2021/09/14 08:54:05;;;;;;;27.30;23.73;;;20.10;74.20;;;;;;5003587;28;20437;-70
2021/09/14 08:56:31;;;;;;;26.75;22.70;;;20.20;74.30;;;;;;5025077;28;20448;-69
2021/09/14 08:59:02;;;;;;;26.17;23.38;;;20.30;74.00;;;;;;5024515;28;20385;-69
2021/09/14 09:01:28;;;;;;;27.33;22.70;;;20.30;73.70;;;;;;5021771;28;20079;-70
2021/09/14 09:04:01;;;;;;;26.55;22.58;;;20.30;73.80;;;;;;5010278;28;20037;-69
2021/09/14 09:06:35;;;;;;;24.67;22.10;;;20.20;73.90;;;;;;5025073;28;20072;-69
2021/09/14 09:09:16;;;;;;;25.63;21.45;;;20.40;74.20;;;;;;5025127;28;20065;-69
2021/09/14 09:12:02;;;;;;;23.95;20.90;;;20.50;73.60;;;;;;5023777;28;20048;-73
2021/09/14 09:14:42;;;;;;;24.25;21.52;;;20.70;73.80;;;;;;5019592;28;20058;-68
2021/09/14 09:17:13;;;;;;;24.77;22.10;;;21.20;73.00;;;;;;5020693;28;20041;-68
2021/09/14 09:19:44;;;;;;;24.50;20.98;;;21.50;70.90;;;;;;5019595;28;20504;-69
2021/09/14 09:22:12;;;;;;;27.27;20.00;;;21.60;70.80;;;;;;5019183;28;20034;-69
2021/09/14 09:24:48;;;;;;;23.13;18.98;;;21.70;70.90;;;;;;5017662;28;20046;-68
2021/09/14 09:27:18;;;;;;;24.45;18.95;;;21.80;70.10;;;;;;5024103;28;20086;-68
2021/09/14 09:29:44;;;;;;;21.30;18.58;;;21.80;68.90;;;;;;5028780;28;20483;-70
2021/09/14 09:32:10;;;;;;;24.25;18.75;;;21.60;69.20;;;;;;5009337;28;20037;-69
2021/09/14 09:34:36;;;;;;;26.90;19.00;;;21.70;69.60;;;;;;5022371;28;20036;-72
2021/09/14 09:37:06;;;;;;;22.95;17.92;;;21.80;69.40;;;;;;5025327;28;20033;-75
2021/09/14 09:39:37;;;;;;;21.67;16.67;;;21.90;69.00;;;;;;5027916;28;20052;-72
2021/09/14 09:42:06;;;;;;;18.80;15.30;;;22.00;69.60;;;;;;5024217;28;20030;-72
2021/09/14 09:44:31;;;;;;;20.58;17.10;;;22.00;69.50;;;;;;5024366;28;20049;-71
2021/09/14 09:47:00;;;;;;;22.88;16.00;;;21.90;68.80;;;;;;5003789;28;20079;-73
2021/09/14 09:49:26;;;;;;;20.25;16.92;;;21.90;69.20;;;;;;5024986;28;20042;-73
2021/09/14 09:51:53;;;;;;;18.48;15.55;;;22.00;69.60;;;;;;5024638;28;20100;-72
2021/09/14 09:54:19;;;;;;;20.08;15.98;;;22.00;69.70;;;;;;5007020;28;20486;-72
2021/09/14 09:56:48;;;;;;;19.50;15.68;;;22.00;69.60;;;;;;5026781;28;20045;-72
2021/09/14 09:59:14;;;;;;;19.50;15.20;;;21.90;69.60;;;;;;5022631;28;20037;-70
2021/09/14 10:01:59;;;;;;;19.08;14.52;;;22.00;69.70;;;;;;5026967;28;20108;-73
2021/09/14 10:04:29;;;;;;;19.15;14.57;;;21.90;69.70;;;;;;5004326;28;20033;-70
2021/09/14 10:06:57;;;;;;;20.52;14.10;;;22.00;69.30;;;;;;5020566;28;20041;-69
2021/09/14 10:09:32;;;;;;;17.50;14.07;;;22.10;69.70;;;;;;5023819;28;20037;-68
2021/09/14 10:11:58;;;;;;;18.40;14.55;;;22.30;69.30;;;;;;5023898;28;20037;-71
2021/09/14 10:14:25;;;;;;;19.85;14.82;;;22.20;70.00;;;;;;5022359;28;20689;-69
2021/09/14 10:16:51;;;;;;;19.35;14.52;;;22.30;69.20;;;;;;5005151;28;20029;-69
2021/09/14 10:19:27;;;;;;;19.20;13.93;;;22.30;68.60;;;;;;5027363;28;20655;-70
2021/09/14 10:22:07;;;;;;;19.42;13.85;;;22.20;69.20;;;;;;5019432;28;20078;-73
2021/09/14 10:24:35;;;;;;;14.57;12.57;;;22.30;68.90;;;;;;5013496;28;20073;-70
2021/09/14 10:27:08;;;;;;;15.30;12.63;;;22.30;69.20;;;;;;5020415;28;20034;-71
2021/09/14 10:29:34;;;;;;;15.38;12.77;;;22.30;69.70;;;;;;5004193;28;20392;-69
2021/09/14 10:32:02;;;;;;;19.05;14.98;;;22.20;69.00;;;;;;5002277;28;20022;-71
2021/09/14 10:34:28;;;;;;;18.45;14.23;;;22.10;69.00;;;;;;5023705;28;20042;-70
2021/09/14 10:37:08;;;;;;;17.50;14.23;;;22.10;69.60;;;;;;5024577;28;20072;-72
2021/09/14 10:39:39;;;;;;;17.02;13.63;;;22.10;69.90;;;;;;5018589;28;20041;-70
2021/09/14 10:42:16;;;;;;;16.08;13.32;;;22.00;70.10;;;;;;5008296;28;20037;-69
2021/09/14 10:44:42;;;;;;;15.77;13.10;;;21.80;70.40;;;;;;5023988;28;20040;-69
2021/09/14 10:47:11;;;;;;;16.52;12.27;;;21.80;70.40;;;;;;5020770;28;20105;-70
2021/09/14 10:50:00;;;;;;;15.40;11.95;;;21.90;70.60;;;;;;5004974;28;20401;-71
2021/09/14 10:52:40;;;;;;;18.10;13.50;;;21.90;71.40;;;;;;5019538;28;20037;-70
2021/09/14 10:55:13;;;;;;;14.52;11.77;;;22.00;71.40;;;;;;5019299;28;20034;-68
2021/09/14 10:57:41;;;;;;;17.38;13.73;;;22.00;71.50;;;;;;5016297;28;20554;-70
2021/09/14 11:00:12;;;;;;;16.33;12.55;;;22.10;70.50;;;;;;5017567;28;20046;-71
2021/09/14 11:02:39;;;;;;;18.10;12.00;;;22.20;70.60;;;;;;5017750;28;20108;-68
2021/09/14 11:05:06;;;;;;;14.98;12.02;;;22.20;70.10;;;;;;5020639;28;20473;-69
2021/09/14 11:07:32;;;;;;;16.73;13.02;;;22.30;70.30;;;;;;5014315;28;20038;-69
2021/09/14 11:10:00;;;;;;;18.13;12.50;;;22.20;69.80;;;;;;5003740;28;20063;-68
2021/09/14 11:12:30;;;;;;;16.95;11.63;;;22.20;70.00;;;;;;5012763;28;20226;-70
2021/09/14 11:14:58;;;;;;;17.77;12.77;;;22.30;70.00;;;;;;5018378;28;20539;-73
2021/09/14 11:17:25;;;;;;;16.02;12.73;;;22.60;69.70;;;;;;5015319;28;20481;-70
2021/09/14 11:19:52;;;;;;;15.40;12.15;;;22.60;69.40;;;;;;5021605;28;20033;-76
2021/09/14 11:22:30;;;;;;;15.63;11.60;;;22.50;69.10;;;;;;5018005;28;20034;-72
2021/09/14 11:24:56;;;;;;;15.68;12.38;;;22.60;70.60;;;;;;5016808;28;20044;-70
2021/09/14 11:27:23;;;;;;;15.73;12.80;;;22.80;70.00;;;;;;5014737;28;20022;-71
2021/09/14 11:29:49;;;;;;;15.65;12.00;;;22.80;69.80;;;;;;5020862;28;20482;-70
2021/09/14 11:32:16;;;;;;;16.17;11.18;;;22.80;69.20;;;;;;5020598;28;20072;-71
2021/09/14 11:34:41;;;;;;;14.45;10.32;;;22.90;69.00;;;;;;5017251;28;20091;-75
2021/09/14 11:37:07;;;;;;;16.13;12.07;;;23.00;68.50;;;;;;5006265;28;20030;-72
2021/09/14 11:39:37;;;;;;;16.42;10.98;;;23.20;68.10;;;;;;5020760;28;20077;-72
2021/09/14 11:42:03;;;;;;;11.70;10.05;;;23.50;67.70;;;;;;5020015;28;20504;-72
2021/09/14 11:44:29;;;;;;;16.30;10.52;;;23.80;67.10;;;;;;5015678;28;20030;-72
2021/09/14 11:46:55;;;;;;;13.13;9.63;;;24.10;65.50;;;;;;5005934;28;20453;-71
2021/09/14 11:49:27;;;;;;;13.00;9.50;;;24.20;64.60;;;;;;5016572;28;20508;-70
2021/09/14 11:52:01;;;;;;;12.68;9.80;;;24.40;64.90;;;;;;5008937;28;20034;-71
2021/09/14 11:54:34;;;;;;;13.57;9.73;;;24.40;65.70;;;;;;5019105;28;20057;-72
2021/09/14 11:57:00;;;;;;;13.87;9.60;;;24.60;63.70;;;;;;5023935;28;20037;-71
2021/09/14 11:59:32;;;;;;;13.35;8.73;;;24.70;63.70;;;;;;5026578;28;20038;-70
2021/09/14 12:01:59;;;;;;;19.45;9.30;;;24.60;63.00;;;;;;5023734;28;20044;-70
2021/09/14 12:04:24;;;;;;;12.63;8.82;;;24.50;63.80;;;;;;5024069;28;20037;-70
2021/09/14 12:06:52;;;;;;;13.55;9.43;;;24.40;63.70;;;;;;5024618;28;20029;-70
2021/09/14 12:09:19;;;;;;;12.02;9.02;;;24.50;63.80;;;;;;5025825;28;20033;-68
2021/09/14 12:11:46;;;;;;;12.85;8.57;;;24.60;63.80;;;;;;5027645;28;20545;-70
2021/09/14 12:14:18;;;;;;;12.55;8.00;;;24.70;62.60;;;;;;5027004;28;20397;-71
2021/09/14 12:16:44;;;;;;;13.75;8.38;;;24.80;62.80;;;;;;5020485;28;20041;-70
2021/09/14 12:19:12;;;;;;;13.77;9.25;;;25.10;63.20;;;;;;5020877;28;20503;-69
2021/09/14 12:21:38;;;;;;;16.92;9.27;;;25.40;61.10;;;;;;5012144;28;20531;-70
2021/09/14 12:24:05;;;;;;;12.35;8.70;;;25.60;60.50;;;;;;5027980;28;20041;-70
2021/09/14 12:26:39;;;;;;;10.73;8.20;;;25.50;61.20;;;;;;5028303;28;20029;-69
2021/09/14 12:29:06;;;;;;;12.82;8.27;;;25.80;59.90;;;;;;5007335;28;20040;-71
2021/09/14 12:31:32;;;;;;;10.52;7.70;;;25.60;61.30;;;;;;5026420;28;20449;-70
2021/09/14 12:33:58;;;;;;;10.60;7.63;;;25.40;61.10;;;;;;5027106;28;20452;-69
2021/09/14 12:36:25;;;;;;;11.73;8.88;;;25.20;61.90;;;;;;5025205;28;20022;-70
2021/09/14 12:38:50;;;;;;;12.07;8.38;;;25.00;62.50;;;;;;5027550;28;20037;-70
2021/09/14 12:41:16;;;;;;;10.82;7.68;;;24.70;62.80;;;;;;5018210;28;20040;-70
2021/09/14 12:43:50;;;;;;;13.45;9.02;;;24.70;62.90;;;;;;5025991;28;20646;-70
2021/09/14 12:46:17;;;;;;;11.52;8.60;;;24.70;63.70;;;;;;5027866;28;20033;-70
2021/09/14 12:48:43;;;;;;;13.68;8.57;;;24.80;63.10;;;;;;5028104;28;20485;-70
2021/09/14 12:51:09;;;;;;;13.30;9.68;;;24.80;63.70;;;;;;5025896;28;20120;-70
2021/09/14 12:53:35;;;;;;;11.40;8.90;;;24.70;64.20;;;;;;5022536;28;20033;-70
2021/09/14 12:56:01;;;;;;;11.43;8.50;;;24.50;64.30;;;;;;5021657;28;20041;-74
2021/09/14 12:58:26;;;;;;;11.18;8.57;;;24.50;64.80;;;;;;5010356;28;20045;-70
2021/09/14 13:00:52;;;;;;;10.80;7.93;;;24.40;65.40;;;;;;5007293;28;20076;-69
2021/09/14 13:03:18;;;;;;;12.13;8.25;;;24.30;65.00;;;;;;5023192;28;20032;-73
2021/09/14 13:05:43;;;;;;;12.93;7.72;;;24.20;66.40;;;;;;5025624;28;20112;-69
2021/09/14 13:08:10;;;;;;;14.60;9.15;;;24.10;66.20;;;;;;5006028;28;20060;-72
2021/09/14 13:10:36;;;;;;;12.68;8.05;;;24.10;67.00;;;;;;5022385;28;20041;-69
2021/09/14 13:18:34;;;;;;;11.23;8.15;;;23.90;67.70;;;;;;5028389;28;20554;-74
2021/09/14 13:21:00;;;;;;;10.88;7.70;;;23.80;68.30;;;;;;5030941;28;20030;-78
2021/09/14 13:23:25;;;;;;;13.57;7.68;;;23.80;68.10;;;;;;5049701;28;20048;-83
2021/09/14 13:25:52;;;;;;;12.00;8.43;;;23.70;68.50;;;;;;5029813;28;20025;-76